createdAt,value
2017-09-29T00:01:22.455Z,68.50
2017-09-29T00:03:48.862Z,68.80
2017-09-29T00:06:15.261Z,69.10
2017-09-29T00:08:41.682Z,69.90
2017-09-29T00:11:08.117Z,69.00
2017-09-29T00:13:34.556Z,68.70
2017-09-29T00:16:00.954Z,68.90
2017-09-29T00:18:27.375Z,68.90
2017-09-29T00:20:53.808Z,68.10
2017-09-29T00:23:20.948Z,68.00
2017-09-29T00:25:48.125Z,68.30
2017-09-29T00:28:14.549Z,68.30
2017-09-29T00:30:41.702Z,68.90
2017-09-29T00:33:08.159Z,68.90
2017-09-29T00:35:34.622Z,69.20
2017-09-29T00:38:01.047Z,69.40
2017-09-29T00:40:27.547Z,69.70
2017-09-29T00:42:53.965Z,69.80
2017-09-29T00:45:20.400Z,69.70
2017-09-29T00:47:46.834Z,69.40
2017-09-29T00:50:13.295Z,69.50
2017-09-29T00:52:39.748Z,69.70
2017-09-29T00:55:06.189Z,69.60
2017-09-29T00:57:32.619Z,69.80
2017-09-29T00:59:59.129Z,69.70
2017-09-29T01:02:25.619Z,69.40
2017-09-29T01:04:52.829Z,69.00
2017-09-29T01:07:19.249Z,68.80
2017-09-29T01:09:45.669Z,68.40
2017-09-29T01:12:12.081Z,68.70
2017-09-29T01:14:39.270Z,68.40
2017-09-29T01:17:05.727Z,68.30
2017-09-29T01:19:32.180Z,68.50
2017-09-29T01:21:59.433Z,68.80
2017-09-29T01:24:26.641Z,69.60
2017-09-29T01:26:53.112Z,69.00
2017-09-29T01:29:19.661Z,69.30
2017-09-29T01:31:46.862Z,69.80
2017-09-29T01:34:13.341Z,69.80
2017-09-29T01:36:40.547Z,69.60
2017-09-29T01:39:08.541Z,69.80
2017-09-29T01:41:35.741Z,70.60
2017-09-29T01:44:02.177Z,70.20
2017-09-29T01:46:28.637Z,70.30
2017-09-29T01:48:55.091Z,70.00
2017-09-29T01:51:21.540Z,69.70
2017-09-29T01:53:47.987Z,69.20
2017-09-29T01:56:15.200Z,69.10
2017-09-29T01:58:43.134Z,68.90
2017-09-29T02:01:09.660Z,68.90
2017-09-29T02:03:36.136Z,70.00
2017-09-29T02:06:03.370Z,70.30
2017-09-29T02:08:29.808Z,70.30
2017-09-29T02:10:56.255Z,70.40
2017-09-29T02:13:24.214Z,70.20
2017-09-29T02:15:50.687Z,70.10
2017-09-29T02:18:17.886Z,70.00
2017-09-29T02:20:44.386Z,70.00
2017-09-29T02:23:11.621Z,69.70
2017-09-29T02:25:38.816Z,69.60
2017-09-29T02:28:05.260Z,69.60
2017-09-29T02:30:31.689Z,69.60
2017-09-29T02:32:58.140Z,69.60
2017-09-29T02:35:24.588Z,69.50
2017-09-29T02:37:52.502Z,70.10
2017-09-29T02:40:18.968Z,70.00
2017-09-29T02:42:45.427Z,69.70
2017-09-29T02:45:11.901Z,70.10
2017-09-29T02:47:38.352Z,70.20
2017-09-29T02:50:04.825Z,70.20
2017-09-29T02:52:32.749Z,70.00
2017-09-29T02:54:59.196Z,69.90
2017-09-29T02:57:28.548Z,69.80
2017-09-29T02:59:57.302Z,70.90
2017-09-29T03:02:27.435Z,70.30
2017-09-29T03:04:58.015Z,69.80
2017-09-29T03:07:24.566Z,69.70
2017-09-29T03:09:51.073Z,69.80
2017-09-29T03:12:17.530Z,70.00
2017-09-29T03:14:43.973Z,69.70
2017-09-29T03:17:10.400Z,70.00
2017-09-29T03:19:36.810Z,69.70
2017-09-29T03:22:03.240Z,70.00
2017-09-29T03:24:29.655Z,70.30
2017-09-29T03:26:56.813Z,71.00
2017-09-29T03:29:23.938Z,71.20
2017-09-29T03:31:50.390Z,71.20
2017-09-29T03:34:17.594Z,71.00
2017-09-29T03:36:44.012Z,70.90
2017-09-29T03:39:10.416Z,71.00
2017-09-29T03:41:37.558Z,71.20
2017-09-29T03:44:04.728Z,71.30
2017-09-29T03:46:31.158Z,71.40
2017-09-29T03:48:57.641Z,71.50
2017-09-29T03:51:26.985Z,70.80
2017-09-29T03:53:54.421Z,70.80
2017-09-29T03:56:23.315Z,70.80
2017-09-29T03:58:54.634Z,70.50
2017-09-29T04:01:22.580Z,70.20
2017-09-29T04:03:49.083Z,70.10
2017-09-29T04:06:15.479Z,70.10
2017-09-29T04:08:41.890Z,70.30
2017-09-29T04:11:08.425Z,70.70
2017-09-29T04:13:34.869Z,70.60
2017-09-29T04:16:01.354Z,70.90
2017-09-29T04:18:27.810Z,70.60
2017-09-29T04:20:54.233Z,71.10
2017-09-29T04:23:20.694Z,70.50
2017-09-29T04:25:47.133Z,71.00
2017-09-29T04:28:13.534Z,70.80
2017-09-29T04:30:40.010Z,70.80
2017-09-29T04:33:06.436Z,71.00
2017-09-29T04:35:34.308Z,71.30
2017-09-29T04:38:02.208Z,71.40
2017-09-29T04:40:28.621Z,71.30
2017-09-29T04:42:55.037Z,71.30
2017-09-29T04:45:22.933Z,71.50
2017-09-29T04:47:50.436Z,71.30
2017-09-29T04:50:16.857Z,71.30
2017-09-29T04:52:43.308Z,71.40
2017-09-29T04:55:09.692Z,71.30
2017-09-29T04:57:36.843Z,71.80
2017-09-29T05:00:03.308Z,71.70
2017-09-29T05:02:29.749Z,71.20
2017-09-29T05:04:56.160Z,71.40
2017-09-29T05:07:22.558Z,71.70
2017-09-29T05:09:49.002Z,72.60
2017-09-29T05:12:16.152Z,71.60
2017-09-29T05:14:43.327Z,71.70
2017-09-29T05:17:09.841Z,71.70
2017-09-29T05:19:37.027Z,71.40
2017-09-29T05:22:03.433Z,72.10
2017-09-29T05:24:29.914Z,71.60
2017-09-29T05:26:56.370Z,71.60
2017-09-29T05:29:22.789Z,71.10
2017-09-29T05:31:49.212Z,71.20
2017-09-29T05:34:15.662Z,71.30
2017-09-29T05:36:42.086Z,71.20
2017-09-29T05:39:08.496Z,70.90
2017-09-29T05:41:34.913Z,71.70
2017-09-29T05:44:01.305Z,72.00
2017-09-29T05:46:27.711Z,72.40
2017-09-29T05:48:54.183Z,72.70
2017-09-29T05:51:21.366Z,72.80
2017-09-29T05:53:48.502Z,72.40
2017-09-29T05:56:14.900Z,72.40
2017-09-29T05:58:42.033Z,72.70
2017-09-29T06:01:08.463Z,72.60
2017-09-29T06:03:34.871Z,72.50
2017-09-29T06:06:01.286Z,72.20
2017-09-29T06:08:27.724Z,72.10
2017-09-29T06:10:54.173Z,72.40
2017-09-29T06:13:20.615Z,71.90
2017-09-29T06:15:47.016Z,71.80
2017-09-29T06:18:13.460Z,71.60
2017-09-29T06:20:39.900Z,71.90
2017-09-29T06:23:06.356Z,71.80
2017-09-29T06:25:32.797Z,72.00
2017-09-29T06:27:59.252Z,72.50
2017-09-29T06:30:26.457Z,71.40
2017-09-29T06:32:52.926Z,71.30
2017-09-29T06:35:19.324Z,71.60
2017-09-29T06:37:45.724Z,71.30
2017-09-29T06:40:12.870Z,71.00
2017-09-29T06:42:40.019Z,70.90
2017-09-29T06:45:06.428Z,70.90
2017-09-29T06:47:32.898Z,70.40
2017-09-29T06:49:59.328Z,69.40
2017-09-29T06:52:25.739Z,69.10
2017-09-29T06:54:52.878Z,68.00
2017-09-29T06:57:20.780Z,67.80
2017-09-29T06:59:47.204Z,68.40
2017-09-29T07:02:14.364Z,66.80
2017-09-29T07:04:40.840Z,66.80
2017-09-29T07:07:07.326Z,67.50
2017-09-29T07:09:33.767Z,67.70
2017-09-29T07:12:00.234Z,66.60
2017-09-29T07:14:26.662Z,67.90
2017-09-29T07:16:53.065Z,67.30
2017-09-29T07:19:19.564Z,68.10
2017-09-29T07:21:46.778Z,67.30
2017-09-29T07:24:13.224Z,67.30
2017-09-29T07:26:41.327Z,66.70
2017-09-29T07:29:10.301Z,65.90
2017-09-29T07:31:38.839Z,65.00
2017-09-29T07:34:05.375Z,65.80
2017-09-29T07:36:32.724Z,64.20
2017-09-29T07:38:59.247Z,64.20
2017-09-29T07:41:25.801Z,63.90
2017-09-29T07:43:53.041Z,64.70
2017-09-29T07:46:19.484Z,64.50
2017-09-29T07:48:45.973Z,64.90
2017-09-29T07:51:12.395Z,63.90
2017-09-29T07:53:38.852Z,64.90
2017-09-29T07:56:06.061Z,64.60
2017-09-29T07:58:32.485Z,64.60
2017-09-29T08:00:58.888Z,64.20
2017-09-29T08:03:25.298Z,64.00
2017-09-29T08:05:51.688Z,65.50
2017-09-29T08:08:18.122Z,65.40
2017-09-29T08:10:45.276Z,64.60
2017-09-29T08:13:11.716Z,64.00
2017-09-29T08:15:38.109Z,63.30
2017-09-29T08:18:04.516Z,63.40
2017-09-29T08:20:31.724Z,64.30
2017-09-29T08:22:58.117Z,64.30
2017-09-29T08:25:24.533Z,64.40
2017-09-29T08:27:51.743Z,63.10
2017-09-29T08:30:18.132Z,63.00
2017-09-29T08:32:44.585Z,61.90
2017-09-29T08:35:11.039Z,62.50
2017-09-29T08:37:37.451Z,62.40
2017-09-29T08:40:03.869Z,62.70
2017-09-29T08:42:30.265Z,63.70
2017-09-29T08:44:57.411Z,63.00
2017-09-29T08:47:23.844Z,62.50
2017-09-29T08:49:50.272Z,62.10
2017-09-29T08:52:16.715Z,60.70
2017-09-29T08:54:43.123Z,61.20
2017-09-29T08:57:09.513Z,60.60
2017-09-29T08:59:42.086Z,60.30
2017-09-29T09:02:08.517Z,60.40
2017-09-29T09:04:34.967Z,59.80
2017-09-29T09:07:01.483Z,59.80
2017-09-29T09:09:27.902Z,60.30
2017-09-29T09:11:55.040Z,60.30
2017-09-29T09:14:21.474Z,60.40
2017-09-29T09:16:48.644Z,61.00
2017-09-29T09:19:15.784Z,59.70
2017-09-29T09:21:42.912Z,59.60
2017-09-29T09:24:09.356Z,59.60
2017-09-29T09:26:35.757Z,60.20
2017-09-29T09:29:02.156Z,59.40
2017-09-29T09:31:28.558Z,58.80
2017-09-29T09:33:54.967Z,58.60
2017-09-29T09:36:21.384Z,57.40
2017-09-29T09:38:47.900Z,56.90
2017-09-29T09:41:14.325Z,56.40
2017-09-29T09:43:40.708Z,55.20
2017-09-29T09:46:07.124Z,54.70
2017-09-29T09:48:33.517Z,54.70
2017-09-29T09:50:59.959Z,54.90
2017-09-29T09:53:26.342Z,55.00
2017-09-29T09:55:52.800Z,54.00
2017-09-29T09:58:19.225Z,54.20
2017-09-29T10:00:46.373Z,54.20
2017-09-29T10:03:13.524Z,54.00
2017-09-29T10:05:40.724Z,52.30
2017-09-29T10:08:07.165Z,52.30
2017-09-29T10:10:33.632Z,51.90
2017-09-29T10:13:00.833Z,53.30
2017-09-29T10:15:27.232Z,53.10
2017-09-29T10:17:54.556Z,52.80
2017-09-29T10:20:21.033Z,53.40
2017-09-29T10:22:47.494Z,53.90
2017-09-29T10:25:14.653Z,52.90
2017-09-29T10:27:41.048Z,52.90
2017-09-29T10:30:08.215Z,53.10
2017-09-29T10:32:34.618Z,53.00
2017-09-29T10:35:01.045Z,53.80
2017-09-29T10:37:27.477Z,54.10
2017-09-29T10:39:54.864Z,54.00
2017-09-29T10:42:21.314Z,53.40
2017-09-29T10:44:47.709Z,53.60
2017-09-29T10:47:14.870Z,54.80
2017-09-29T10:49:41.349Z,54.70
2017-09-29T10:52:07.763Z,54.60
2017-09-29T10:54:34.182Z,53.50
2017-09-29T10:57:00.617Z,53.80
2017-09-29T10:59:27.013Z,54.00
2017-09-29T11:01:53.395Z,53.40
2017-09-29T11:04:19.780Z,53.40
2017-09-29T11:06:46.168Z,52.60
2017-09-29T11:09:12.609Z,53.20
2017-09-29T11:11:38.976Z,53.30
2017-09-29T11:14:06.141Z,53.20
2017-09-29T11:16:32.585Z,52.80
2017-09-29T11:18:58.997Z,53.00
2017-09-29T11:21:26.188Z,53.30
2017-09-29T11:23:52.601Z,53.20
2017-09-29T11:26:18.990Z,52.20
2017-09-29T11:28:45.386Z,50.90
2017-09-29T11:31:11.785Z,51.00
2017-09-29T11:33:39.534Z,51.10
2017-09-29T11:36:05.917Z,51.10
2017-09-29T11:38:32.305Z,52.50
2017-09-29T11:40:58.768Z,51.00
2017-09-29T11:43:25.163Z,51.40
2017-09-29T11:45:52.317Z,50.80
2017-09-29T11:48:18.716Z,50.60
2017-09-29T11:50:45.114Z,51.10
2017-09-29T11:53:11.504Z,51.50
2017-09-29T11:55:37.946Z,51.80
2017-09-29T11:58:05.086Z,50.80
2017-09-29T12:00:31.492Z,51.30
2017-09-29T12:02:57.932Z,50.50
2017-09-29T12:05:24.353Z,50.70
2017-09-29T12:07:50.759Z,51.10
2017-09-29T12:10:17.166Z,50.90
2017-09-29T12:12:44.288Z,50.40
2017-09-29T12:15:10.680Z,50.40
2017-09-29T12:17:37.045Z,50.20
2017-09-29T12:20:03.437Z,50.50
2017-09-29T12:22:29.833Z,50.50
2017-09-29T12:24:57.728Z,49.70
2017-09-29T12:27:24.167Z,49.70
2017-09-29T12:29:50.582Z,49.00
2017-09-29T12:32:17.712Z,50.00
2017-09-29T12:34:45.660Z,49.20
2017-09-29T12:37:12.080Z,49.10
2017-09-29T12:39:38.537Z,49.10
2017-09-29T12:42:04.944Z,48.90
2017-09-29T12:44:31.345Z,48.60
2017-09-29T12:46:58.477Z,48.50
2017-09-29T12:49:24.877Z,48.50
2017-09-29T12:51:51.279Z,49.10
2017-09-29T12:54:17.781Z,48.80
2017-09-29T12:56:45.632Z,49.00
2017-09-29T12:59:11.315Z,49.10
2017-09-29T13:01:37.711Z,48.90
2017-09-29T13:04:04.850Z,47.30
2017-09-29T13:06:32.040Z,47.70
2017-09-29T13:08:58.501Z,47.60
2017-09-29T13:11:24.910Z,47.20
2017-09-29T13:13:51.311Z,47.90
2017-09-29T13:16:18.512Z,48.00
2017-09-29T13:18:44.923Z,48.00
2017-09-29T13:21:11.309Z,48.40
2017-09-29T13:23:37.706Z,48.50
2017-09-29T13:26:04.148Z,48.30
2017-09-29T13:28:32.071Z,47.30
2017-09-29T13:30:58.459Z,47.20
2017-09-29T13:33:24.894Z,47.60
2017-09-29T13:35:51.304Z,48.00
2017-09-29T13:38:17.710Z,47.60
2017-09-29T13:40:44.115Z,47.10
2017-09-29T13:43:11.254Z,47.30
2017-09-29T13:45:37.685Z,47.30
2017-09-29T13:48:04.824Z,47.20
2017-09-29T13:50:32.006Z,47.20
2017-09-29T13:52:59.174Z,46.50
2017-09-29T13:55:25.700Z,46.50
2017-09-29T13:57:52.094Z,46.60
2017-09-29T14:00:18.479Z,46.60
2017-09-29T14:02:44.895Z,47.10
2017-09-29T14:05:11.298Z,47.60
2017-09-29T14:07:37.702Z,47.00
2017-09-29T14:10:04.131Z,47.10
2017-09-29T14:12:30.536Z,47.50
2017-09-29T14:14:56.937Z,47.80
2017-09-29T14:17:23.358Z,47.60
2017-09-29T14:19:50.481Z,47.60
2017-09-29T14:22:16.865Z,47.70
2017-09-29T14:24:44.011Z,47.50
2017-09-29T14:27:11.144Z,47.40
2017-09-29T14:29:37.572Z,47.30
2017-09-29T14:32:03.981Z,47.60
2017-09-29T14:34:30.378Z,47.50
2017-09-29T14:36:56.782Z,47.40
2017-09-29T14:39:23.953Z,47.20
2017-09-29T14:41:50.352Z,47.20
2017-09-29T14:44:16.745Z,47.60
2017-09-29T14:46:43.120Z,47.30
2017-09-29T14:49:09.545Z,47.10
2017-09-29T14:51:35.992Z,47.00
2017-09-29T14:54:03.124Z,47.80
2017-09-29T14:56:30.255Z,47.60
2017-09-29T14:58:56.782Z,47.50
2017-09-29T15:01:23.247Z,47.90
2017-09-29T15:03:51.163Z,47.00
2017-09-29T15:06:17.564Z,47.00
2017-09-29T15:08:44.682Z,47.20
2017-09-29T15:11:11.099Z,47.20
2017-09-29T15:13:37.515Z,47.20
2017-09-29T15:16:03.912Z,47.50
2017-09-29T15:18:30.348Z,47.30
2017-09-29T15:20:56.783Z,47.40
2017-09-29T15:23:23.976Z,47.90
2017-09-29T15:25:50.348Z,47.90
2017-09-29T15:28:16.743Z,48.20
2017-09-29T15:30:43.146Z,48.20
2017-09-29T15:33:09.528Z,48.40
2017-09-29T15:35:35.943Z,48.80
2017-09-29T15:38:02.321Z,48.90
2017-09-29T15:40:28.721Z,49.00
2017-09-29T15:42:55.176Z,49.30
2017-09-29T15:45:21.640Z,49.30
2017-09-29T15:47:48.792Z,49.40
2017-09-29T15:50:15.259Z,49.50
2017-09-29T15:52:41.673Z,49.50
2017-09-29T15:55:08.080Z,49.40
2017-09-29T15:57:35.254Z,49.50
2017-09-29T16:00:01.699Z,49.50
2017-09-29T16:02:28.142Z,49.80
2017-09-29T16:04:54.544Z,49.70
2017-09-29T16:07:21.652Z,49.90
2017-09-29T16:09:48.893Z,49.90
2017-09-29T16:12:15.289Z,49.80
2017-09-29T16:14:41.856Z,50.20
2017-09-29T16:17:08.278Z,50.10
2017-09-29T16:19:34.674Z,50.20
2017-09-29T16:22:01.801Z,50.70
2017-09-29T16:24:28.216Z,50.60
2017-09-29T16:26:54.632Z,50.80
2017-09-29T16:29:21.044Z,50.80
2017-09-29T16:31:47.653Z,50.90
2017-09-29T16:34:14.069Z,50.90
2017-09-29T16:36:40.478Z,51.00
2017-09-29T16:39:06.910Z,51.10
2017-09-29T16:41:33.328Z,51.20
2017-09-29T16:43:59.729Z,51.00
2017-09-29T16:46:27.017Z,51.00
2017-09-29T16:48:53.418Z,51.10
2017-09-29T16:51:19.825Z,51.30
2017-09-29T16:53:46.207Z,51.70
2017-09-29T16:56:12.648Z,52.10
2017-09-29T16:58:39.062Z,52.20
2017-09-29T17:01:05.509Z,52.60
2017-09-29T17:03:32.764Z,52.70
2017-09-29T17:05:59.199Z,52.70
2017-09-29T17:08:25.638Z,52.90
2017-09-29T17:10:52.033Z,53.00
2017-09-29T17:13:18.813Z,53.20
2017-09-29T17:15:45.215Z,53.50
2017-09-29T17:18:11.691Z,53.70
2017-09-29T17:20:38.164Z,53.60
2017-09-29T17:23:05.389Z,53.90
2017-09-29T17:25:32.540Z,53.90
2017-09-29T17:27:58.946Z,53.70
2017-09-29T17:30:25.380Z,53.80
2017-09-29T17:32:51.803Z,54.00
2017-09-29T17:35:18.580Z,54.10
2017-09-29T17:37:44.994Z,54.10
2017-09-29T17:40:11.425Z,54.00
2017-09-29T17:42:37.832Z,53.80
2017-09-29T17:45:04.246Z,53.80
2017-09-29T17:47:30.699Z,54.00
2017-09-29T17:49:57.103Z,53.80
2017-09-29T17:52:24.522Z,54.00
2017-09-29T17:54:50.945Z,54.00
2017-09-29T17:57:17.353Z,53.90
2017-09-29T17:59:43.842Z,54.10
2017-09-29T18:02:11.057Z,54.50
2017-09-29T18:04:37.447Z,54.30
2017-09-29T18:07:03.847Z,54.50
2017-09-29T18:09:30.298Z,54.90
2017-09-29T18:11:57.444Z,55.30
2017-09-29T18:14:23.887Z,55.30
2017-09-29T18:16:51.047Z,55.40
2017-09-29T18:19:17.447Z,55.40
2017-09-29T18:21:44.841Z,55.50
2017-09-29T18:24:11.275Z,55.40
2017-09-29T18:26:37.711Z,55.70
2017-09-29T18:29:04.173Z,55.80
2017-09-29T18:31:30.660Z,56.10
2017-09-29T18:33:57.817Z,55.80
2017-09-29T18:36:24.206Z,55.80
2017-09-29T18:38:50.645Z,56.00
2017-09-29T18:41:31.589Z,55.90
2017-09-29T18:44:00.999Z,56.20
2017-09-29T18:46:28.145Z,56.00
2017-09-29T18:48:54.569Z,56.00
2017-09-29T18:51:20.999Z,55.90
2017-09-29T18:56:23.895Z,56.00
2017-09-29T18:58:50.306Z,56.00
2017-09-29T19:01:16.744Z,56.40
2017-09-29T19:03:43.201Z,56.70
2017-09-29T19:06:09.639Z,56.50
2017-09-29T19:08:37.045Z,56.90
2017-09-29T19:11:04.230Z,57.60
2017-09-29T19:13:30.685Z,57.00
2017-09-29T19:15:57.122Z,57.30
2017-09-29T19:18:23.540Z,57.60
2017-09-29T19:20:49.962Z,57.20
2017-09-29T19:23:16.374Z,57.40
2017-09-29T19:25:43.514Z,57.40
2017-09-29T19:28:10.717Z,57.60
2017-09-29T19:30:37.901Z,57.60
2017-09-29T19:33:05.059Z,58.50
2017-09-29T19:35:32.208Z,58.10
2017-09-29T19:37:58.682Z,58.40
2017-09-29T19:40:25.117Z,58.50
2017-09-29T19:42:51.521Z,58.60
2017-09-29T19:45:18.703Z,59.10
2017-09-29T19:47:45.121Z,59.10
2017-09-29T19:50:11.548Z,59.10
2017-09-29T19:52:38.729Z,59.00
2017-09-29T19:55:05.234Z,59.10
2017-09-29T19:57:31.675Z,59.20
2017-09-29T19:59:58.072Z,59.10
2017-09-29T20:02:25.947Z,59.40
2017-09-29T20:04:53.100Z,59.60
2017-09-29T20:07:20.275Z,59.70
2017-09-29T20:09:46.739Z,59.70
2017-09-29T20:12:13.235Z,60.00
2017-09-29T20:14:39.683Z,60.50
2017-09-29T20:17:06.127Z,60.80
2017-09-29T20:19:32.555Z,60.60
2017-09-29T20:21:59.009Z,61.10
2017-09-29T20:24:25.401Z,60.90
2017-09-29T20:26:51.784Z,60.90
2017-09-29T20:29:18.244Z,61.10
2017-09-29T20:31:45.435Z,61.50
2017-09-29T20:34:11.904Z,61.40
2017-09-29T20:36:38.945Z,61.60
2017-09-29T20:39:05.367Z,62.10
2017-09-29T20:41:31.807Z,62.20
2017-09-29T20:43:58.246Z,62.40
2017-09-29T20:46:24.673Z,62.20
2017-09-29T20:48:51.104Z,62.50
2017-09-29T20:51:17.593Z,62.50
2017-09-29T20:53:44.033Z,62.80
2017-09-29T20:56:11.167Z,62.40
2017-09-29T20:58:38.365Z,62.20
2017-09-29T21:01:04.837Z,62.20
2017-09-29T21:03:31.235Z,62.30
2017-09-29T21:05:57.627Z,62.30
2017-09-29T21:08:24.031Z,62.30
2017-09-29T21:10:50.453Z,62.30
2017-09-29T21:13:16.863Z,62.50
2017-09-29T21:15:43.287Z,62.30
2017-09-29T21:18:09.735Z,62.50
2017-09-29T21:20:36.153Z,62.30
2017-09-29T21:23:02.570Z,62.50
2017-09-29T21:25:28.972Z,62.40
2017-09-29T21:27:56.122Z,62.50
2017-09-29T21:30:23.267Z,62.80
2017-09-29T21:32:49.656Z,62.40
2017-09-29T21:35:16.064Z,61.70
2017-09-29T21:37:42.456Z,62.00
2017-09-29T21:40:08.871Z,62.00
2017-09-29T21:42:35.302Z,63.00
2017-09-29T21:45:01.737Z,62.30
2017-09-29T21:47:28.934Z,61.80
2017-09-29T21:49:55.342Z,62.00
2017-09-29T21:52:21.767Z,62.10
2017-09-29T21:54:48.250Z,61.80
2017-09-29T21:57:14.656Z,62.20
2017-09-29T21:59:41.821Z,61.80
2017-09-29T22:02:08.288Z,61.80
2017-09-29T22:04:34.713Z,61.90
2017-09-29T22:07:01.148Z,61.60
2017-09-29T22:09:27.544Z,61.50
2017-09-29T22:11:54.678Z,61.30
2017-09-29T22:14:21.861Z,61.50
2017-09-29T22:16:48.353Z,61.50
2017-09-29T22:19:14.748Z,61.50
2017-09-29T22:21:41.159Z,61.10
2017-09-29T22:24:07.554Z,61.90
2017-09-29T22:26:34.704Z,62.40
2017-09-29T22:29:01.097Z,62.00
2017-09-29T22:31:27.475Z,62.10
2017-09-29T22:33:53.874Z,62.10
2017-09-29T22:36:20.264Z,61.30
2017-09-29T22:38:46.673Z,59.70
2017-09-29T22:41:13.810Z,59.20
2017-09-29T22:43:41.690Z,59.80
2017-09-29T22:46:08.805Z,60.80
2017-09-29T22:48:35.234Z,60.70
2017-09-29T22:51:01.619Z,60.80
2017-09-29T22:53:28.022Z,61.20
2017-09-29T22:55:54.447Z,61.90
2017-09-29T22:58:21.610Z,63.10
2017-09-29T23:00:48.767Z,63.40
2017-09-29T23:03:15.158Z,63.30
2017-09-29T23:05:41.556Z,63.10
2017-09-29T23:08:07.971Z,62.80
2017-09-29T23:10:35.127Z,63.60
2017-09-29T23:13:02.239Z,65.30
2017-09-29T23:15:30.127Z,64.90
2017-09-29T23:17:57.292Z,64.90
2017-09-29T23:20:24.492Z,64.60
2017-09-29T23:22:52.385Z,66.20
2017-09-29T23:25:18.807Z,66.20
2017-09-29T23:27:45.942Z,66.30
2017-09-29T23:30:12.356Z,65.80
2017-09-29T23:32:39.750Z,65.10
2017-09-29T23:35:07.613Z,66.40
2017-09-29T23:37:35.504Z,67.70
2017-09-29T23:40:02.636Z,68.20
2017-09-29T23:42:29.076Z,68.20
2017-09-29T23:44:55.582Z,68.20
2017-09-29T23:47:21.967Z,69.00
2017-09-29T23:49:48.395Z,68.50
2017-09-29T23:52:14.837Z,68.80
2017-09-29T23:54:41.241Z,68.90
2017-09-29T23:57:07.640Z,68.90
2017-09-29T23:59:34.036Z,69.40
